Time;durP1;ratioP1;P1;durP2;ratioP2;P2;SDS_P1;SDS_P2;PMS_P1;PMS_P2;Temp;Humidity;BMP_temperature;BMP_pressure;BME280_temperature;BME280_humidity;BME280_pressure;Samples;Min_cycle;Max_cycle;Signal;HPM_P1;HPM_P2
2023/09/14 00:00:52;;;;;;;7.15;2.60;;;13.10;99.90;;;;;;5054442;28;20045;-72
2023/09/14 00:03:18;;;;;;;7.82;2.60;;;13.10;99.90;;;;;;5071667;28;20075;-72
2023/09/14 00:05:46;;;;;;;6.22;2.58;;;13.00;99.90;;;;;;5072641;28;20044;-72
2023/09/14 00:08:12;;;;;;;7.53;2.85;;;13.10;99.90;;;;;;5054503;28;20041;-72
2023/09/14 00:10:39;;;;;;;4.60;2.10;;;13.00;99.90;;;;;;5050705;28;20041;-72
2023/09/14 00:13:06;;;;;;;6.03;2.28;;;13.00;99.90;;;;;;5034358;28;20094;-72
2023/09/14 00:15:32;;;;;;;5.32;2.22;;;13.10;99.90;;;;;;5035067;28;20552;-72
2023/09/14 00:17:58;;;;;;;5.20;2.45;;;13.10;99.90;;;;;;5033911;28;20584;-72
2023/09/14 00:20:26;;;;;;;4.32;2.03;;;13.10;99.90;;;;;;5034607;28;20198;-72
2023/09/14 00:22:55;;;;;;;7.35;2.50;;;13.10;99.90;;;;;;5051927;28;20041;-72
2023/09/14 00:25:21;;;;;;;5.85;2.60;;;13.00;99.90;;;;;;5053673;28;20048;-72
2023/09/14 00:27:47;;;;;;;7.38;2.35;;;13.10;99.90;;;;;;5054221;28;20079;-72
2023/09/14 00:30:13;;;;;;;5.28;2.50;;;13.10;99.90;;;;;;5071631;28;20044;-72
2023/09/14 00:32:40;;;;;;;6.90;2.60;;;13.00;99.90;;;;;;5071989;28;20432;-72
2023/09/14 00:35:14;;;;;;;6.28;2.60;;;13.00;99.90;;;;;;5053879;28;20088;-72
2023/09/14 00:37:41;;;;;;;6.20;2.40;;;13.10;99.90;;;;;;5072501;28;20129;-72
2023/09/14 00:40:08;;;;;;;5.78;2.40;;;13.00;99.90;;;;;;5053200;28;20139;-72
2023/09/14 00:42:53;;;;;;;7.15;2.38;;;12.90;99.90;;;;;;5054177;28;20044;-72
2023/09/14 00:45:20;;;;;;;6.28;2.78;;;12.90;99.90;;;;;;5053693;28;20048;-72
2023/09/14 00:47:58;;;;;;;5.75;2.65;;;12.80;99.90;;;;;;5071928;28;20408;-71
2023/09/14 00:50:25;;;;;;;5.97;2.35;;;12.80;99.90;;;;;;5054535;28;20045;-71
2023/09/14 00:53:02;;;;;;;6.07;2.88;;;12.70;99.90;;;;;;5052365;28;20498;-72
2023/09/14 00:55:29;;;;;;;7.55;3.10;;;12.60;99.90;;;;;;5045012;28;20052;-72
2023/09/14 00:57:56;;;;;;;7.40;2.53;;;12.50;99.90;;;;;;5043154;28;20036;-72
2023/09/14 01:00:21;;;;;;;5.88;2.40;;;12.40;99.90;;;;;;5053481;28;20048;-72
2023/09/14 01:03:00;;;;;;;5.40;2.75;;;12.30;99.90;;;;;;5054038;28;20043;-72
2023/09/14 01:05:28;;;;;;;5.90;3.03;;;12.30;99.90;;;;;;5050831;28;20395;-72
2023/09/14 01:07:54;;;;;;;5.97;2.63;;;12.20;99.90;;;;;;5051232;28;20095;-72
2023/09/14 01:10:20;;;;;;;6.38;2.72;;;12.10;99.90;;;;;;5034438;28;20046;-72
2023/09/14 01:12:50;;;;;;;6.22;2.58;;;12.00;99.90;;;;;;5034164;28;20528;-71
2023/09/14 01:15:35;;;;;;;5.38;2.33;;;12.00;99.90;;;;;;5067148;28;20080;-72
2023/09/14 01:18:07;;;;;;;5.22;2.20;;;11.90;99.90;;;;;;5058042;28;20113;-72
2023/09/14 01:21:02;;;;;;;6.80;2.80;;;11.80;99.90;;;;;;5057032;28;20052;-72
2023/09/14 01:23:47;;;;;;;5.63;2.58;;;11.80;99.90;;;;;;5058141;28;20044;-72
2023/09/14 01:26:14;;;;;;;7.80;2.63;;;11.70;99.90;;;;;;5057854;28;20087;-71
2023/09/14 01:28:40;;;;;;;6.88;2.70;;;11.80;99.90;;;;;;5056560;28;20086;-72
2023/09/14 01:31:06;;;;;;;8.45;2.53;;;11.50;99.90;;;;;;5053875;28;20110;-72
2023/09/14 01:33:32;;;;;;;6.55;2.83;;;11.50;99.90;;;;;;5037895;28;20048;-71
2023/09/14 01:36:16;;;;;;;6.53;2.83;;;11.50;99.90;;;;;;5037085;28;20491;-71
2023/09/14 01:38:43;;;;;;;5.55;3.30;;;11.40;99.90;;;;;;5037446;28;20053;-71
2023/09/14 01:41:10;;;;;;;4.07;2.35;;;11.30;99.90;;;;;;5037442;28;20045;-71
2023/09/14 01:43:37;;;;;;;4.50;2.80;;;11.30;99.90;;;;;;5036493;28;20136;-71
2023/09/14 01:46:03;;;;;;;4.53;2.58;;;11.20;99.90;;;;;;5054965;28;20047;-72
2023/09/14 01:48:29;;;;;;;4.78;2.72;;;11.20;99.90;;;;;;5074831;28;20044;-72
2023/09/14 01:50:55;;;;;;;4.95;2.20;;;11.30;99.90;;;;;;5057559;28;20048;-71
2023/09/14 01:53:20;;;;;;;5.30;2.28;;;11.10;99.90;;;;;;5074481;28;20045;-71
2023/09/14 01:55:46;;;;;;;6.03;2.78;;;11.10;99.90;;;;;;5056186;28;20103;-71
2023/09/14 01:58:12;;;;;;;6.25;3.00;;;11.10;99.90;;;;;;5075178;28;20047;-72
2023/09/14 02:00:38;;;;;;;6.60;2.45;;;11.10;99.90;;;;;;5057233;28;20037;-72
2023/09/14 02:03:04;;;;;;;5.68;2.80;;;11.10;99.90;;;;;;5055778;28;20059;-72
2023/09/14 02:05:30;;;;;;;6.00;2.70;;;11.00;99.90;;;;;;5075135;28;20043;-71
2023/09/14 02:07:56;;;;;;;4.93;2.63;;;11.00;99.90;;;;;;5074467;28;20037;-71
2023/09/14 02:10:22;;;;;;;5.25;2.67;;;11.00;99.90;;;;;;5056414;28;20048;-72
2023/09/14 02:12:51;;;;;;;5.18;2.67;;;10.90;99.90;;;;;;5056285;28;20086;-72
2023/09/14 02:15:17;;;;;;;4.82;2.47;;;10.90;99.90;;;;;;5057473;28;20036;-72
2023/09/14 02:17:43;;;;;;;6.13;2.25;;;10.90;99.90;;;;;;5056523;28;20614;-71
2023/09/14 02:20:09;;;;;;;8.10;2.40;;;11.20;99.90;;;;;;5056498;28;20127;-71
2023/09/14 02:22:35;;;;;;;9.45;2.75;;;10.80;99.90;;;;;;5053499;28;20048;-72
2023/09/14 02:25:01;;;;;;;5.45;2.50;;;10.80;99.90;;;;;;5049522;28;20052;-71
2023/09/14 02:27:27;;;;;;;9.05;2.75;;;11.20;99.90;;;;;;5036947;28;20508;-71
2023/09/14 02:29:53;;;;;;;4.65;2.50;;;10.70;99.90;;;;;;5036455;28;20079;-71
2023/09/14 02:32:19;;;;;;;7.13;2.78;;;10.70;99.90;;;;;;5054152;28;20123;-71
2023/09/14 02:34:46;;;;;;;7.55;3.28;;;10.60;99.90;;;;;;5054406;28;20045;-71
2023/09/14 02:37:15;;;;;;;4.93;2.60;;;10.60;99.90;;;;;;5046467;28;20040;-71
2023/09/14 02:39:41;;;;;;;6.72;2.60;;;10.50;99.90;;;;;;5055650;28;20513;-71
2023/09/14 02:42:12;;;;;;;5.40;2.50;;;10.50;99.90;;;;;;5056143;28;20163;-72
2023/09/14 02:44:38;;;;;;;3.70;2.35;;;10.50;99.90;;;;;;5056699;28;20468;-71
2023/09/14 02:47:04;;;;;;;7.03;2.60;;;10.50;99.90;;;;;;5051612;28;20048;-71
2023/09/14 02:49:29;;;;;;;5.55;2.60;;;10.40;99.90;;;;;;5036347;28;20098;-71
2023/09/14 02:51:55;;;;;;;7.35;2.50;;;10.40;99.90;;;;;;5041324;28;20044;-72
2023/09/14 02:54:21;;;;;;;7.55;2.58;;;10.40;99.90;;;;;;5056124;28;20110;-71
2023/09/14 02:56:49;;;;;;;5.47;2.50;;;10.40;99.90;;;;;;5073446;28;20511;-71
2023/09/14 02:59:17;;;;;;;5.22;2.72;;;10.40;99.90;;;;;;5056019;28;20049;-71
2023/09/14 03:01:44;;;;;;;5.57;3.00;;;10.40;99.90;;;;;;5056434;28;20411;-71
2023/09/14 03:04:10;;;;;;;7.28;3.00;;;10.30;99.90;;;;;;5052309;28;20056;-71
2023/09/14 03:06:35;;;;;;;5.75;2.60;;;10.50;99.90;;;;;;5040238;28;20636;-71
2023/09/14 03:09:01;;;;;;;6.15;2.47;;;10.30;99.90;;;;;;5073501;28;20048;-71
2023/09/14 03:11:27;;;;;;;3.90;2.50;;;10.20;99.90;;;;;;5055909;28;20043;-71
2023/09/14 03:13:52;;;;;;;7.15;2.97;;;10.20;99.90;;;;;;5054846;28;20056;-71
2023/09/14 03:16:21;;;;;;;5.03;2.63;;;10.20;99.90;;;;;;5073266;28;20044;-71
2023/09/14 03:18:46;;;;;;;5.50;3.00;;;10.10;99.90;;;;;;5054546;28;20480;-71
2023/09/14 03:21:24;;;;;;;6.85;3.38;;;10.10;99.90;;;;;;5051404;28;20090;-71
2023/09/14 03:23:50;;;;;;;7.25;3.13;;;10.10;99.90;;;;;;5035312;28;20487;-71
2023/09/14 03:26:16;;;;;;;5.95;3.22;;;10.10;99.90;;;;;;5035989;28;20044;-71
2023/09/14 03:28:41;;;;;;;8.43;3.28;;;10.10;99.90;;;;;;5060920;28;20098;-71
2023/09/14 03:31:08;;;;;;;5.55;3.17;;;10.00;99.90;;;;;;5055275;28;20041;-71
2023/09/14 03:33:34;;;;;;;8.10;3.10;;;10.00;99.90;;;;;;5051713;28;20049;-71
2023/09/14 03:36:00;;;;;;;5.40;3.00;;;10.00;99.90;;;;;;5052319;28;20056;-71
2023/09/14 03:38:26;;;;;;;5.88;3.22;;;10.00;99.90;;;;;;5052720;28;20103;-71
2023/09/14 03:40:51;;;;;;;6.80;3.47;;;9.90;99.90;;;;;;5035095;28;20045;-71
2023/09/14 03:43:17;;;;;;;6.13;3.53;;;10.30;99.90;;;;;;5056220;28;20036;-71
2023/09/14 03:45:42;;;;;;;;;;;9.90;99.90;;;;;;5052355;28;20557;-71
2023/09/14 03:48:08;;;;;;;5.63;2.90;;;9.90;99.90;;;;;;5054394;28;20318;-71
2023/09/14 03:50:34;;;;;;;8.15;3.47;;;9.90;99.90;;;;;;5055215;28;20049;-71
2023/09/14 03:53:01;;;;;;;;;;;9.80;99.90;;;;;;5055186;28;20404;-71
2023/09/14 03:55:26;;;;;;;5.80;2.95;;;9.80;99.90;;;;;;5054752;28;19924;-71
2023/09/14 03:57:52;;;;;;;;;;;9.80;99.90;;;;;;5055251;28;20131;-71
2023/09/14 04:00:18;;;;;;;9.32;2.92;;;9.80;99.90;;;;;;5055080;28;19975;-71
2023/09/14 04:02:44;;;;;;;7.78;3.13;;;9.80;99.90;;;;;;5054186;28;20101;-71
2023/09/14 04:05:20;;;;;;;7.85;2.85;;;9.80;99.90;;;;;;5054879;28;20176;-71
2023/09/14 04:07:46;;;;;;;7.47;3.10;;;9.90;99.90;;;;;;5054709;28;20036;-71
2023/09/14 04:10:13;;;;;;;8.18;3.60;;;9.90;99.90;;;;;;5051025;28;20041;-71
2023/09/14 04:12:40;;;;;;;6.57;2.97;;;9.90;99.90;;;;;;5035176;28;20081;-71
2023/09/14 04:15:06;;;;;;;6.93;3.08;;;9.90;99.90;;;;;;5034780;28;20056;-71
2023/09/14 04:17:32;;;;;;;6.38;3.20;;;9.90;99.90;;;;;;5034980;28;20486;-71
2023/09/14 04:19:58;;;;;;;8.20;3.00;;;10.00;99.90;;;;;;5071979;28;20048;-71
2023/09/14 04:22:24;;;;;;;5.68;2.95;;;10.00;99.90;;;;;;5054952;28;20109;-71
2023/09/14 04:24:50;;;;;;;7.15;3.10;;;10.00;99.90;;;;;;5071576;28;20037;-71
2023/09/14 04:27:15;;;;;;;8.50;3.08;;;10.20;99.90;;;;;;5054776;28;20569;-71
2023/09/14 04:29:42;;;;;;;8.00;3.28;;;10.00;99.90;;;;;;5072175;28;20040;-71
2023/09/14 04:32:08;;;;;;;6.85;3.45;;;10.00;99.90;;;;;;5050199;28;20033;-71
2023/09/14 04:34:34;;;;;;;8.13;3.13;;;10.00;99.90;;;;;;5052494;28;20400;-71
2023/09/14 04:36:59;;;;;;;9.23;3.00;;;10.00;99.90;;;;;;5052246;28;20045;-71
2023/09/14 04:39:26;;;;;;;6.63;3.10;;;10.10;99.90;;;;;;5046110;28;20055;-71
2023/09/14 04:41:51;;;;;;;6.95;2.88;;;9.90;99.90;;;;;;5054171;28;20052;-71
2023/09/14 04:44:17;;;;;;;5.57;2.70;;;9.90;99.90;;;;;;5053813;28;20044;-71
2023/09/14 04:46:42;;;;;;;4.97;2.92;;;9.90;99.90;;;;;;5054497;28;20093;-70
2023/09/14 04:49:08;;;;;;;;;;;9.80;99.90;;;;;;5055067;28;20048;-70
2023/09/14 04:51:34;;;;;;;6.53;2.90;;;9.80;99.90;;;;;;5056044;28;19949;-71
2023/09/14 04:53:59;;;;;;;5.90;2.92;;;9.80;99.90;;;;;;5074348;28;20083;-70
2023/09/14 04:56:25;;;;;;;5.25;2.80;;;9.80;99.90;;;;;;5054906;28;20072;-70
2023/09/14 04:58:51;;;;;;;6.85;2.78;;;9.80;99.90;;;;;;5055111;28;20052;-71
2023/09/14 05:01:17;;;;;;;6.22;2.88;;;10.10;99.90;;;;;;5075262;28;20048;-70
2023/09/14 05:03:43;;;;;;;5.25;2.70;;;9.80;99.90;;;;;;5056675;28;20057;-73
2023/09/14 05:06:09;;;;;;;4.90;2.83;;;9.80;99.90;;;;;;5073341;28;20562;-71
2023/09/14 05:08:34;;;;;;;;;;;9.80;99.90;;;;;;5076578;28;20037;-71
2023/09/14 05:11:01;;;;;;;6.28;2.88;;;9.80;99.90;;;;;;5075507;28;20366;-73
2023/09/14 05:13:27;;;;;;;6.40;3.13;;;10.00;99.90;;;;;;5057284;28;20045;-71
2023/09/14 05:15:52;;;;;;;5.40;2.88;;;10.10;99.90;;;;;;5057174;28;20412;-72
2023/09/14 05:18:18;;;;;;;8.60;3.05;;;9.90;99.90;;;;;;5057943;28;20063;-73
2023/09/14 05:20:46;;;;;;;4.55;2.70;;;9.90;99.90;;;;;;5057013;28;20040;-72
2023/09/14 05:23:12;;;;;;;7.38;2.92;;;10.60;99.90;;;;;;5057678;28;20044;-75
2023/09/14 05:25:38;;;;;;;6.05;2.70;;;10.00;99.90;;;;;;5053525;28;20044;-72
2023/09/14 05:28:04;;;;;;;5.20;2.90;;;10.00;99.90;;;;;;5036756;28;20631;-71
2023/09/14 05:30:32;;;;;;;5.97;2.97;;;10.10;99.90;;;;;;5037641;28;20052;-71
2023/09/14 05:32:58;;;;;;;8.02;3.20;;;10.10;99.90;;;;;;5036900;28;20049;-71
2023/09/14 05:35:24;;;;;;;5.90;3.03;;;10.20;99.90;;;;;;5046274;28;20053;-71
2023/09/14 05:37:50;;;;;;;6.60;3.10;;;10.40;99.90;;;;;;5056540;28;20044;-74
2023/09/14 05:40:17;;;;;;;6.53;2.90;;;10.60;99.90;;;;;;5053541;28;20110;-73
2023/09/14 05:42:42;;;;;;;8.50;3.30;;;10.60;99.90;;;;;;5036567;28;20054;-73
2023/09/14 05:45:09;;;;;;;6.90;3.13;;;10.60;99.90;;;;;;5046406;28;20048;-73
2023/09/14 05:47:38;;;;;;;8.77;3.22;;;10.60;99.90;;;;;;5056605;28;20040;-73
2023/09/14 05:50:06;;;;;;;6.93;3.10;;;10.60;99.90;;;;;;5056889;28;20044;-73
2023/09/14 05:52:32;;;;;;;5.80;3.05;;;10.70;99.90;;;;;;5057474;28;20079;-73
2023/09/14 05:54:58;;;;;;;5.68;3.40;;;10.70;99.90;;;;;;5074153;28;20381;-73
2023/09/14 05:57:24;;;;;;;7.82;3.10;;;10.70;99.90;;;;;;5057360;28;20048;-73
2023/09/14 05:59:50;;;;;;;7.80;2.83;;;10.70;99.90;;;;;;5055148;28;20045;-73
2023/09/14 06:02:19;;;;;;;6.45;2.95;;;10.80;99.90;;;;;;5049588;28;20040;-71
2023/09/14 06:04:48;;;;;;;5.45;2.78;;;10.90;99.90;;;;;;5050731;28;20041;-71
2023/09/14 06:07:16;;;;;;;8.32;3.03;;;10.90;99.90;;;;;;5050278;28;20044;-74
2023/09/14 06:09:41;;;;;;;4.63;2.50;;;11.00;99.90;;;;;;5052584;28;20041;-73
2023/09/14 06:12:07;;;;;;;7.15;2.50;;;11.30;99.90;;;;;;5047732;28;20391;-72
2023/09/14 06:14:33;;;;;;;7.18;2.65;;;11.10;99.90;;;;;;5055377;28;20048;-72
2023/09/14 06:16:59;;;;;;;5.88;2.80;;;11.00;99.90;;;;;;5055254;28;20395;-72
2023/09/14 06:19:25;;;;;;;7.38;2.72;;;11.10;99.90;;;;;;5050690;28;20078;-73
2023/09/14 06:21:50;;;;;;;7.72;2.80;;;11.20;99.90;;;;;;5054375;28;20063;-73
2023/09/14 06:24:17;;;;;;;6.38;2.80;;;11.80;99.90;;;;;;5073086;28;20094;-73
2023/09/14 06:26:44;;;;;;;7.85;2.90;;;11.40;99.90;;;;;;5056166;28;20098;-73
2023/09/14 06:29:13;;;;;;;6.88;2.55;;;11.40;99.90;;;;;;5056601;28;20504;-73
2023/09/14 06:31:39;;;;;;;7.05;3.20;;;11.50;99.90;;;;;;5055906;28;20099;-73
2023/09/14 06:34:04;;;;;;;6.00;2.80;;;11.50;99.90;;;;;;5056383;28;20135;-73
2023/09/14 06:36:30;;;;;;;5.07;2.50;;;11.50;99.90;;;;;;5074402;28;20116;-73
2023/09/14 06:38:56;;;;;;;6.00;2.72;;;11.50;99.90;;;;;;5051661;28;20128;-73
2023/09/14 06:41:22;;;;;;;9.10;3.17;;;11.60;99.90;;;;;;5036786;28;20068;-73
2023/09/14 06:43:51;;;;;;;6.47;2.60;;;11.70;99.90;;;;;;5068779;28;20484;-73
2023/09/14 06:46:16;;;;;;;6.85;2.30;;;11.80;99.90;;;;;;5036404;28;20036;-73
2023/09/14 06:48:42;;;;;;;5.65;3.00;;;11.90;99.90;;;;;;5036639;28;20136;-73
2023/09/14 06:51:08;;;;;;;6.65;2.90;;;11.90;99.90;;;;;;5040091;28;20036;-74
2023/09/14 06:53:34;;;;;;;;;;;12.00;99.90;;;;;;5056466;28;20066;-73
2023/09/14 06:56:10;;;;;;;5.43;2.60;;;12.00;99.90;;;;;;5056123;28;19966;-74
2023/09/14 06:58:37;;;;;;;7.97;2.83;;;12.20;99.90;;;;;;5073365;28;20123;-74
2023/09/14 07:01:04;;;;;;;6.70;2.80;;;12.20;99.90;;;;;;5055975;28;20111;-73
2023/09/14 07:03:34;;;;;;;6.68;2.13;;;12.30;99.90;;;;;;5055886;28;20480;-73
2023/09/14 07:06:00;;;;;;;5.55;2.40;;;12.50;99.90;;;;;;5054430;28;20056;-74
2023/09/14 07:08:26;;;;;;;9.55;2.53;;;12.60;99.90;;;;;;5055852;28;20049;-74
2023/09/14 07:10:53;;;;;;;6.00;2.70;;;12.70;99.90;;;;;;5073563;28;20040;-73
2023/09/14 07:13:18;;;;;;;8.63;2.88;;;12.80;99.90;;;;;;5054186;28;20177;-73
2023/09/14 07:15:44;;;;;;;5.88;2.35;;;12.80;99.90;;;;;;5055365;28;20128;-73
2023/09/14 07:18:23;;;;;;;6.55;2.60;;;12.90;99.90;;;;;;5073479;28;20186;-73
2023/09/14 07:20:49;;;;;;;6.18;2.35;;;13.00;99.90;;;;;;5054552;28;20045;-74
2023/09/14 07:23:15;;;;;;;7.68;2.60;;;13.20;99.90;;;;;;5054544;28;20048;-74
2023/09/14 07:25:40;;;;;;;4.15;2.53;;;13.40;99.90;;;;;;5055705;28;20408;-74
2023/09/14 07:28:06;;;;;;;4.45;2.13;;;14.30;99.90;;;;;;5054747;28;20044;-74
2023/09/14 07:30:34;;;;;;;3.72;1.77;;;15.70;99.90;;;;;;5073404;28;20564;-74
2023/09/14 07:33:00;;;;;;;5.57;2.10;;;17.10;99.90;;;;;;5054548;28;20098;-74
2023/09/14 07:35:26;;;;;;;6.00;1.90;;;18.10;99.90;;;;;;5050818;28;20045;-74
2023/09/14 07:37:51;;;;;;;5.00;1.80;;;18.60;99.90;;;;;;5066119;28;20036;-74
2023/09/14 07:40:17;;;;;;;5.45;1.70;;;18.40;99.90;;;;;;5054436;28;20059;-74
2023/09/14 07:42:43;;;;;;;5.88;1.80;;;17.90;99.90;;;;;;5055054;28;20430;-74
2023/09/14 07:45:09;;;;;;;5.43;1.92;;;17.50;99.90;;;;;;5054408;28;20045;-74
2023/09/14 07:47:34;;;;;;;5.00;1.88;;;17.10;99.90;;;;;;5071705;28;20094;-74
2023/09/14 07:50:00;;;;;;;6.07;1.80;;;16.90;99.90;;;;;;5072749;28;20040;-74
2023/09/14 07:52:27;;;;;;;6.88;2.05;;;16.90;99.90;;;;;;5054694;28;20496;-74
2023/09/14 07:54:52;;;;;;;5.18;1.90;;;17.00;99.90;;;;;;5053772;28;20059;-74
2023/09/14 07:57:18;;;;;;;8.90;2.05;;;17.20;99.90;;;;;;5051513;28;20041;-75
2023/09/14 07:59:45;;;;;;;4.88;1.75;;;17.60;99.90;;;;;;5052703;28;20048;-75
2023/09/14 08:02:11;;;;;;;5.47;2.17;;;18.50;99.90;;;;;;5051957;28;20059;-75
2023/09/14 08:04:36;;;;;;;6.38;1.83;;;19.60;99.90;;;;;;5035121;28;20140;-75
2023/09/14 08:07:02;;;;;;;6.30;1.60;;;20.60;99.90;;;;;;5035728;28;20049;-75
2023/09/14 08:09:27;;;;;;;8.40;1.70;;;21.00;99.90;;;;;;5053949;28;20044;-75
2023/09/14 08:11:53;;;;;;;7.95;1.92;;;21.20;99.90;;;;;;5054957;28;20056;-75
2023/09/14 08:14:19;;;;;;;6.22;2.03;;;21.70;99.90;;;;;;5072533;28;20489;-75
2023/09/14 08:16:44;;;;;;;4.35;1.65;;;22.40;98.90;;;;;;5053939;28;20392;-75
2023/09/14 08:19:13;;;;;;;5.47;1.60;;;23.20;97.60;;;;;;5053869;28;20146;-75
2023/09/14 08:21:39;;;;;;;6.22;1.95;;;23.50;95.80;;;;;;5054589;28;20405;-75
2023/09/14 08:24:05;;;;;;;6.82;2.03;;;23.10;96.10;;;;;;5053430;28;20113;-75
2023/09/14 08:26:30;;;;;;;6.38;1.90;;;22.50;96.30;;;;;;5054602;28;20085;-75
2023/09/14 08:29:05;;;;;;;7.05;2.30;;;22.00;96.60;;;;;;5071948;28;20036;-74
2023/09/14 08:31:31;;;;;;;8.20;2.00;;;21.70;97.80;;;;;;5053633;28;20476;-75
2023/09/14 08:33:56;;;;;;;7.28;2.10;;;21.40;97.90;;;;;;5053943;28;20094;-74
2023/09/14 08:36:22;;;;;;;4.80;2.05;;;21.30;98.70;;;;;;5071855;28;20044;-74
2023/09/14 08:38:48;;;;;;;5.13;2.05;;;21.30;98.20;;;;;;5053193;28;20136;-74
2023/09/14 08:41:26;;;;;;;6.30;1.98;;;20.90;99.20;;;;;;5072263;28;20365;-75
2023/09/14 08:43:52;;;;;;;5.72;2.20;;;21.00;99.50;;;;;;5053505;28;20048;-75
2023/09/14 08:46:19;;;;;;;7.07;1.83;;;21.60;99.60;;;;;;5052468;28;20049;-75
2023/09/14 08:48:46;;;;;;;6.05;2.20;;;22.30;99.00;;;;;;5054320;28;20112;-75
2023/09/14 08:51:13;;;;;;;9.90;2.58;;;23.00;97.40;;;;;;5053818;28;20041;-75
2023/09/14 08:53:40;;;;;;;7.05;1.83;;;23.30;96.60;;;;;;5054283;28;20040;-74
2023/09/14 08:56:08;;;;;;;6.38;2.20;;;23.10;97.20;;;;;;5053842;28;20064;-75
2023/09/14 08:58:35;;;;;;;5.97;2.17;;;23.40;96.10;;;;;;5053494;28;20135;-75
2023/09/14 09:01:02;;;;;;;8.32;2.20;;;24.00;96.10;;;;;;5050213;28;20530;-75
2023/09/14 09:03:28;;;;;;;5.05;1.80;;;24.10;94.60;;;;;;5052243;28;20053;-75
2023/09/14 09:05:54;;;;;;;9.30;2.25;;;23.70;94.60;;;;;;5033180;28;20044;-75
2023/09/14 09:08:20;;;;;;;8.30;1.98;;;23.10;95.20;;;;;;5034544;28;20041;-75
2023/09/14 09:10:47;;;;;;;8.00;2.00;;;22.30;96.20;;;;;;5034157;28;20045;-75
2023/09/14 09:13:13;;;;;;;6.03;1.98;;;21.80;97.40;;;;;;5033716;28;20148;-74
2023/09/14 09:15:39;;;;;;;9.65;2.45;;;21.60;97.40;;;;;;5036167;28;20470;-74
2023/09/14 09:18:07;;;;;;;9.45;2.03;;;21.50;98.40;;;;;;5049632;28;20036;-75
2023/09/14 09:20:34;;;;;;;4.53;1.75;;;21.80;97.40;;;;;;5033649;28;20053;-75
2023/09/14 09:23:00;;;;;;;8.63;2.30;;;22.00;96.80;;;;;;5062532;28;20043;-73
2023/09/14 09:25:29;;;;;;;8.30;2.10;;;22.80;96.10;;;;;;5054168;28;20396;-73
2023/09/14 09:28:02;;;;;;;8.38;1.92;;;23.30;96.00;;;;;;5070870;28;20044;-73
2023/09/14 09:30:36;;;;;;;8.20;2.22;;;23.40;94.70;;;;;;5053946;28;20365;-73
2023/09/14 09:33:03;;;;;;;6.38;1.88;;;23.30;95.50;;;;;;5049059;28;20183;-73
2023/09/14 09:35:29;;;;;;;5.78;2.17;;;23.70;95.50;;;;;;5051769;28;20080;-73
2023/09/14 09:37:59;;;;;;;9.63;1.80;;;24.40;94.00;;;;;;5036136;28;20132;-73
2023/09/14 09:40:27;;;;;;;5.60;1.85;;;24.70;92.60;;;;;;5037155;28;20186;-73
2023/09/14 09:42:54;;;;;;;9.77;2.30;;;24.40;93.40;;;;;;5044619;28;20074;-73
2023/09/14 09:45:20;;;;;;;6.97;2.08;;;23.90;93.00;;;;;;5057305;28;20044;-73
2023/09/14 09:47:47;;;;;;;7.15;2.15;;;23.30;94.20;;;;;;5056549;28;20055;-73
2023/09/14 09:50:14;;;;;;;6.72;1.92;;;22.80;94.40;;;;;;5057127;28;20049;-73
2023/09/14 09:52:41;;;;;;;5.68;1.92;;;22.50;95.20;;;;;;5074841;28;20052;-73
2023/09/14 09:55:37;;;;;;;6.65;2.00;;;22.60;95.20;;;;;;5055462;28;20044;-73
2023/09/14 09:58:06;;;;;;;6.57;2.08;;;22.50;95.70;;;;;;5036192;28;20153;-73
2023/09/14 10:00:38;;;;;;;7.90;1.92;;;22.70;95.20;;;;;;5057172;28;20052;-73
2023/09/14 10:03:05;;;;;;;6.57;2.03;;;22.40;95.20;;;;;;5052650;28;20060;-73
2023/09/14 10:05:31;;;;;;;6.20;2.42;;;22.90;94.80;;;;;;5037285;28;20052;-73
2023/09/14 10:07:58;;;;;;;7.72;2.22;;;22.50;94.90;;;;;;5036137;28;20124;-73
2023/09/14 10:10:26;;;;;;;5.90;1.92;;;22.20;95.70;;;;;;5054875;28;20059;-73
2023/09/14 10:12:53;;;;;;;7.32;2.40;;;22.80;95.50;;;;;;5074657;28;20372;-73
2023/09/14 10:15:20;;;;;;;6.50;1.90;;;23.70;95.00;;;;;;5073700;28;20042;-73
2023/09/14 10:17:53;;;;;;;5.00;1.80;;;24.50;94.40;;;;;;5042488;28;20511;-72
2023/09/14 10:20:20;;;;;;;8.02;2.15;;;24.50;93.10;;;;;;5056418;28;20407;-73
2023/09/14 10:22:47;;;;;;;5.45;2.10;;;23.80;93.60;;;;;;5056607;28;20083;-72
2023/09/14 10:25:14;;;;;;;5.47;1.98;;;23.30;94.10;;;;;;5056324;28;20044;-72
2023/09/14 10:27:42;;;;;;;7.00;2.05;;;22.90;94.50;;;;;;5036748;28;20045;-72
2023/09/14 10:30:13;;;;;;;10.02;2.38;;;22.50;95.00;;;;;;5036446;28;20099;-73
2023/09/14 10:32:39;;;;;;;6.50;2.03;;;22.30;95.10;;;;;;5056493;28;20127;-73
2023/09/14 10:35:05;;;;;;;9.05;2.08;;;22.00;94.90;;;;;;5052623;28;20083;-73
2023/09/14 10:37:35;;;;;;;6.88;2.30;;;22.00;94.10;;;;;;5045505;28;20056;-73
2023/09/14 10:40:02;;;;;;;4.80;1.70;;;21.90;94.60;;;;;;5056012;28;20056;-73
2023/09/14 10:42:28;;;;;;;7.47;2.13;;;22.00;95.50;;;;;;5056415;28;20048;-73
2023/09/14 10:44:54;;;;;;;5.60;1.90;;;22.40;95.40;;;;;;5051714;28;20053;-74
2023/09/14 10:47:23;;;;;;;7.75;1.90;;;22.60;94.40;;;;;;5042055;28;20433;-74
2023/09/14 10:49:50;;;;;;;6.00;2.13;;;22.90;94.30;;;;;;5055844;28;20049;-73
2023/09/14 10:52:27;;;;;;;6.43;1.85;;;22.80;93.60;;;;;;5073726;28;20051;-75
2023/09/14 10:54:54;;;;;;;6.00;2.22;;;22.80;94.00;;;;;;5055009;28;20055;-74
2023/09/14 10:57:24;;;;;;;8.80;2.40;;;23.00;94.60;;;;;;5055385;28;20155;-74
2023/09/14 10:59:58;;;;;;;6.30;2.00;;;23.70;94.00;;;;;;5055581;28;20045;-72
2023/09/14 11:02:54;;;;;;;9.77;2.22;;;24.50;93.20;;;;;;5056188;28;20049;-73
2023/09/14 11:05:24;;;;;;;6.03;2.38;;;25.60;91.90;;;;;;5034443;28;20048;-73
2023/09/14 11:08:04;;;;;;;6.82;1.90;;;26.10;90.90;;;;;;5054027;28;20037;-74
2023/09/14 11:10:29;;;;;;;6.80;2.10;;;25.70;91.20;;;;;;5069441;28;20064;-74
2023/09/14 11:13:21;;;;;;;6.68;1.98;;;26.10;91.50;;;;;;5054318;28;20076;-73
2023/09/14 11:16:14;;;;;;;5.50;1.90;;;26.50;90.90;;;;;;5042171;28;20056;-73
2023/09/14 11:18:42;;;;;;;6.28;1.80;;;26.90;91.00;;;;;;5042799;28;20490;-73
2023/09/14 11:21:31;;;;;;;6.22;1.73;;;27.50;89.80;;;;;;5055770;28;20123;-73
2023/09/14 11:23:58;;;;;;;8.13;2.10;;;28.10;89.60;;;;;;5051623;28;20488;-73
2023/09/14 11:26:34;;;;;;;6.70;1.80;;;28.70;86.70;;;;;;5035173;28;20037;-74
2023/09/14 11:29:04;;;;;;;8.88;2.20;;;28.40;87.40;;;;;;5035119;28;20163;-73
2023/09/14 11:31:30;;;;;;;6.40;2.17;;;28.40;86.70;;;;;;5053054;28;20447;-73
2023/09/14 11:33:57;;;;;;;6.70;2.17;;;28.30;88.10;;;;;;5054370;28;20128;-75
2023/09/14 11:36:27;;;;;;;6.55;2.30;;;28.20;87.00;;;;;;5051635;28;20049;-73
2023/09/14 11:38:53;;;;;;;4.05;1.77;;;28.30;87.70;;;;;;5052459;28;20131;-71
2023/09/14 11:41:55;;;;;;;6.93;2.00;;;28.30;88.00;;;;;;5051114;28;20124;-71
2023/09/14 11:44:23;;;;;;;7.97;2.13;;;29.00;86.60;;;;;;5041925;28;20041;-71
2023/09/14 11:46:51;;;;;;;5.40;1.90;;;29.10;85.90;;;;;;5050706;28;20071;-71
2023/09/14 11:49:20;;;;;;;4.80;1.77;;;28.80;85.60;;;;;;5035169;28;20067;-72
2023/09/14 11:51:51;;;;;;;5.68;1.88;;;29.00;83.70;;;;;;5071051;28;20098;-73
2023/09/14 11:54:17;;;;;;;7.78;2.40;;;29.00;84.40;;;;;;5054391;28;20052;-72
2023/09/14 11:56:42;;;;;;;7.20;1.88;;;28.80;83.80;;;;;;5055012;28;20127;-73
2023/09/14 11:59:10;;;;;;;6.38;2.10;;;28.50;84.40;;;;;;5054503;28;20055;-73
2023/09/14 12:01:35;;;;;;;9.85;2.15;;;28.50;84.10;;;;;;5053778;28;20048;-74
2023/09/14 12:04:04;;;;;;;6.68;1.88;;;28.40;84.70;;;;;;5051352;28;20047;-73
2023/09/14 12:06:31;;;;;;;9.45;2.38;;;27.90;84.00;;;;;;5052854;28;20431;-74
2023/09/14 12:08:58;;;;;;;6.05;2.00;;;27.50;86.50;;;;;;5034080;28;20044;-73
2023/09/14 12:11:35;;;;;;;5.40;2.03;;;27.60;84.40;;;;;;5034929;28;20140;-73
2023/09/14 12:14:01;;;;;;;5.70;2.10;;;27.50;85.80;;;;;;5034566;28;20132;-73
2023/09/14 12:16:29;;;;;;;5.40;1.92;;;27.40;84.80;;;;;;5034164;28;20136;-74
2023/09/14 12:18:55;;;;;;;7.35;2.00;;;27.50;85.20;;;;;;5045712;28;20471;-73
2023/09/14 12:21:23;;;;;;;6.88;2.17;;;27.70;84.40;;;;;;5072416;28;20484;-74
2023/09/14 12:23:59;;;;;;;6.93;2.15;;;27.70;85.30;;;;;;5053408;28;20053;-74
2023/09/14 12:26:24;;;;;;;6.47;2.00;;;28.10;83.40;;;;;;5052603;28;20028;-73
2023/09/14 12:28:54;;;;;;;6.38;2.10;;;28.00;84.60;;;;;;5053160;28;20052;-74
2023/09/14 12:31:23;;;;;;;5.88;1.90;;;28.20;84.50;;;;;;5053727;28;20044;-73
2023/09/14 12:33:52;;;;;;;4.75;2.00;;;28.40;84.10;;;;;;5054246;28;20131;-73
2023/09/14 12:36:20;;;;;;;7.28;2.38;;;28.50;85.20;;;;;;5053709;28;20048;-74
2023/09/14 12:38:47;;;;;;;5.18;1.80;;;28.50;83.80;;;;;;5050565;28;20063;-73
2023/09/14 12:41:16;;;;;;;5.40;1.67;;;28.50;83.70;;;;;;5052462;28;20053;-73
2023/09/14 12:43:46;;;;;;;4.95;2.35;;;28.40;84.00;;;;;;5053572;28;20476;-73
2023/09/14 12:46:13;;;;;;;7.15;2.10;;;28.20;84.90;;;;;;5054143;28;20044;-73
2023/09/14 12:48:42;;;;;;;8.05;2.25;;;28.00;83.00;;;;;;5054337;28;20048;-74
2023/09/14 12:51:07;;;;;;;6.28;2.08;;;27.50;84.60;;;;;;5053284;28;20131;-74
2023/09/14 12:53:40;;;;;;;8.07;2.25;;;27.10;84.60;;;;;;5054323;28;20132;-74